sensor_id;sensor_type;location;lat;lon;timestamp;temperature;humidity
5459;DHT22;2752;49.992;8.422;2022-09-17T00:01:26;11.10;3.00
5459;DHT22;2752;49.992;8.422;2022-09-17T00:03:56;11.00;3.10
5459;DHT22;2752;49.992;8.422;2022-09-17T00:06:28;11.00;4.70
5459;DHT22;2752;49.992;8.422;2022-09-17T00:08:55;11.10;29.20
5459;DHT22;2752;49.992;8.422;2022-09-17T00:11:24;10.90;5.10
5459;DHT22;2752;49.992;8.422;2022-09-17T00:13:51;10.90;5.60
5459;DHT22;2752;49.992;8.422;2022-09-17T00:16:25;10.90;4.80
5459;DHT22;2752;49.992;8.422;2022-09-17T00:18:52;10.90;25.90
5459;DHT22;2752;49.992;8.422;2022-09-17T00:21:20;10.80;4.30
5459;DHT22;2752;49.992;8.422;2022-09-17T00:23:47;10.80;4.50
5459;DHT22;2752;49.992;8.422;2022-09-17T00:26:14;10.80;7.80
5459;DHT22;2752;49.992;8.422;2022-09-17T00:28:41;10.90;5.60
5459;DHT22;2752;49.992;8.422;2022-09-17T00:31:09;10.90;4.80
5459;DHT22;2752;49.992;8.422;2022-09-17T00:33:36;10.90;4.80
5459;DHT22;2752;49.992;8.422;2022-09-17T00:36:04;10.70;34.30
5459;DHT22;2752;49.992;8.422;2022-09-17T00:38:32;10.90;7.30
5459;DHT22;2752;49.992;8.422;2022-09-17T00:40:59;10.80;22.20
5459;DHT22;2752;49.992;8.422;2022-09-17T00:43:34;10.60;6.20
5459;DHT22;2752;49.992;8.422;2022-09-17T00:48:29;10.60;33.40
5459;DHT22;2752;49.992;8.422;2022-09-17T00:50:58;10.40;25.40
5459;DHT22;2752;49.992;8.422;2022-09-17T02:16:51;8.90;16.80
5459;DHT22;2752;49.992;8.422;2022-09-17T02:19:24;10.80;9.20
5459;DHT22;2752;49.992;8.422;2022-09-17T02:21:56;10.90;10.00
5459;DHT22;2752;49.992;8.422;2022-09-17T02:24:31;11.00;6.90
5459;DHT22;2752;49.992;8.422;2022-09-17T02:27:02;10.70;5.80
5459;DHT22;2752;49.992;8.422;2022-09-17T02:29:32;10.80;7.70
5459;DHT22;2752;49.992;8.422;2022-09-17T02:32:00;10.80;6.80
5459;DHT22;2752;49.992;8.422;2022-09-17T02:34:28;10.90;7.90
5459;DHT22;2752;49.992;8.422;2022-09-17T02:36:56;10.80;6.30
5459;DHT22;2752;49.992;8.422;2022-09-17T02:41:54;10.90;1.90
5459;DHT22;2752;49.992;8.422;2022-09-17T02:44:30;10.90;4.30
5459;DHT22;2752;49.992;8.422;2022-09-17T02:47:12;11.00;1.20
5459;DHT22;2752;49.992;8.422;2022-09-17T02:50:02;10.80;2.20
5459;DHT22;2752;49.992;8.422;2022-09-17T02:52:39;11.00;1.00
5459;DHT22;2752;49.992;8.422;2022-09-17T02:55:14;11.10;22.70
5459;DHT22;2752;49.992;8.422;2022-09-17T02:57:46;10.90;1.20
5459;DHT22;2752;49.992;8.422;2022-09-17T03:00:17;11.00;1.50
5459;DHT22;2752;49.992;8.422;2022-09-17T03:02:47;10.90;3.50
5459;DHT22;2752;49.992;8.422;2022-09-17T03:05:20;11.00;2.20
5459;DHT22;2752;49.992;8.422;2022-09-17T03:07:48;11.00;3.00
5459;DHT22;2752;49.992;8.422;2022-09-17T03:10:15;11.10;1.60
5459;DHT22;2752;49.992;8.422;2022-09-17T03:12:42;11.10;1.00
5459;DHT22;2752;49.992;8.422;2022-09-17T03:15:09;11.10;2.50
5459;DHT22;2752;49.992;8.422;2022-09-17T03:17:36;11.10;4.10
5459;DHT22;2752;49.992;8.422;2022-09-17T03:20:03;11.00;8.00
5459;DHT22;2752;49.992;8.422;2022-09-17T03:22:31;11.20;7.30
5459;DHT22;2752;49.992;8.422;2022-09-17T03:24:58;11.00;13.00
5459;DHT22;2752;49.992;8.422;2022-09-17T03:27:24;11.30;20.80
5459;DHT22;2752;49.992;8.422;2022-09-17T03:29:51;11.00;29.30
5459;DHT22;2752;49.992;8.422;2022-09-17T03:32:18;11.00;7.20
5459;DHT22;2752;49.992;8.422;2022-09-17T03:34:44;11.10;4.70
5459;DHT22;2752;49.992;8.422;2022-09-17T03:37:11;11.00;10.80
5459;DHT22;2752;49.992;8.422;2022-09-17T03:39:39;10.90;11.40
5459;DHT22;2752;49.992;8.422;2022-09-17T03:42:06;10.90;14.60
5459;DHT22;2752;49.992;8.422;2022-09-17T03:44:32;11.20;19.20
5459;DHT22;2752;49.992;8.422;2022-09-17T03:46:59;11.10;37.60
5459;DHT22;2752;49.992;8.422;2022-09-17T03:49:25;11.00;15.80
5459;DHT22;2752;49.992;8.422;2022-09-17T03:51:52;11.10;44.80
5459;DHT22;2752;49.992;8.422;2022-09-17T03:54:19;10.80;24.20
5459;DHT22;2752;49.992;8.422;2022-09-17T03:56:47;11.00;27.50
5459;DHT22;2752;49.992;8.422;2022-09-17T03:59:14;10.80;33.30
5459;DHT22;2752;49.992;8.422;2022-09-17T04:01:40;11.10;32.70
5459;DHT22;2752;49.992;8.422;2022-09-17T04:04:07;11.00;26.60
5459;DHT22;2752;49.992;8.422;2022-09-17T04:06:34;11.00;25.70
5459;DHT22;2752;49.992;8.422;2022-09-17T04:09:01;11.10;57.30
5459;DHT22;2752;49.992;8.422;2022-09-17T04:11:29;10.90;32.10
5459;DHT22;2752;49.992;8.422;2022-09-17T04:13:57;10.90;30.00
5459;DHT22;2752;49.992;8.422;2022-09-17T04:16:23;10.80;61.70
5459;DHT22;2752;49.992;8.422;2022-09-17T04:18:50;10.90;46.80
5459;DHT22;2752;49.992;8.422;2022-09-17T04:21:16;10.80;45.80
5459;DHT22;2752;49.992;8.422;2022-09-17T04:23:43;10.90;46.10
5459;DHT22;2752;49.992;8.422;2022-09-17T04:26:10;10.90;37.70
5459;DHT22;2752;49.992;8.422;2022-09-17T04:28:36;10.90;40.80
5459;DHT22;2752;49.992;8.422;2022-09-17T04:31:04;11.00;39.40
5459;DHT22;2752;49.992;8.422;2022-09-17T04:33:31;10.90;37.30
5459;DHT22;2752;49.992;8.422;2022-09-17T04:35:57;10.80;45.20
5459;DHT22;2752;49.992;8.422;2022-09-17T04:38:24;11.00;69.50
5459;DHT22;2752;49.992;8.422;2022-09-17T04:40:50;11.40;41.20
5459;DHT22;2752;49.992;8.422;2022-09-17T04:43:18;10.90;36.20
5459;DHT22;2752;49.992;8.422;2022-09-17T04:45:45;10.80;34.00
5459;DHT22;2752;49.992;8.422;2022-09-17T04:48:13;10.80;36.50
5459;DHT22;2752;49.992;8.422;2022-09-17T04:50:40;10.80;37.70
5459;DHT22;2752;49.992;8.422;2022-09-17T04:53:07;10.80;42.30
5459;DHT22;2752;49.992;8.422;2022-09-17T04:55:33;10.80;39.90
5459;DHT22;2752;49.992;8.422;2022-09-17T04:58:00;10.90;34.30
5459;DHT22;2752;49.992;8.422;2022-09-17T05:00:27;11.00;53.50
5459;DHT22;2752;49.992;8.422;2022-09-17T05:02:54;10.80;35.40
5459;DHT22;2752;49.992;8.422;2022-09-17T05:05:22;10.80;36.40
5459;DHT22;2752;49.992;8.422;2022-09-17T05:07:49;10.90;35.70
5459;DHT22;2752;49.992;8.422;2022-09-17T05:10:18;10.90;34.90
5459;DHT22;2752;49.992;8.422;2022-09-17T05:12:49;10.90;35.10
5459;DHT22;2752;49.992;8.422;2022-09-17T05:15:16;11.00;34.00
5459;DHT22;2752;49.992;8.422;2022-09-17T05:17:43;11.00;34.70
5459;DHT22;2752;49.992;8.422;2022-09-17T05:20:10;11.00;33.20
5459;DHT22;2752;49.992;8.422;2022-09-17T05:22:41;11.00;30.60
5459;DHT22;2752;49.992;8.422;2022-09-17T05:25:09;11.10;30.40
5459;DHT22;2752;49.992;8.422;2022-09-17T05:27:36;11.00;32.40
5459;DHT22;2752;49.992;8.422;2022-09-17T05:30:05;11.10;58.20
5459;DHT22;2752;49.992;8.422;2022-09-17T05:32:32;11.00;31.90
5459;DHT22;2752;49.992;8.422;2022-09-17T05:34:59;11.00;63.20
5459;DHT22;2752;49.992;8.422;2022-09-17T05:37:25;11.00;38.10
5459;DHT22;2752;49.992;8.422;2022-09-17T05:39:53;11.20;27.90
5459;DHT22;2752;49.992;8.422;2022-09-17T05:42:20;11.10;29.00
5459;DHT22;2752;49.992;8.422;2022-09-17T05:44:47;11.20;27.60
5459;DHT22;2752;49.992;8.422;2022-09-17T05:47:13;11.10;29.50
5459;DHT22;2752;49.992;8.422;2022-09-17T05:49:40;11.20;27.50
5459;DHT22;2752;49.992;8.422;2022-09-17T05:52:07;11.20;26.80
5459;DHT22;2752;49.992;8.422;2022-09-17T05:54:33;11.20;30.80
5459;DHT22;2752;49.992;8.422;2022-09-17T05:57:02;11.30;27.10
5459;DHT22;2752;49.992;8.422;2022-09-17T05:59:30;11.00;26.60
5459;DHT22;2752;49.992;8.422;2022-09-17T06:01:58;11.20;31.70
5459;DHT22;2752;49.992;8.422;2022-09-17T06:04:25;11.30;28.00
5459;DHT22;2752;49.992;8.422;2022-09-17T06:09:23;11.50;20.80
5459;DHT22;2752;49.992;8.422;2022-09-17T06:11:52;11.50;20.00
5459;DHT22;2752;49.992;8.422;2022-09-17T06:14:23;11.50;19.30
5459;DHT22;2752;49.992;8.422;2022-09-17T06:16:52;11.50;20.70
5459;DHT22;2752;49.992;8.422;2022-09-17T06:19:19;11.50;33.70
5459;DHT22;2752;49.992;8.422;2022-09-17T06:21:47;11.60;17.10
5459;DHT22;2752;49.992;8.422;2022-09-17T06:24:17;11.70;16.60
5459;DHT22;2752;49.992;8.422;2022-09-17T06:26:44;11.90;38.60
5459;DHT22;2752;49.992;8.422;2022-09-17T06:29:12;11.90;14.30
5459;DHT22;2752;49.992;8.422;2022-09-17T06:31:42;12.20;31.20
5459;DHT22;2752;49.992;8.422;2022-09-17T06:36:37;12.20;18.40
5459;DHT22;2752;49.992;8.422;2022-09-17T06:39:07;12.30;4.30
5459;DHT22;2752;49.992;8.422;2022-09-17T06:41:36;12.30;4.80
5459;DHT22;2752;49.992;8.422;2022-09-17T06:44:04;12.30;5.30
5459;DHT22;2752;49.992;8.422;2022-09-17T06:46:31;12.80;18.10
5459;DHT22;2752;49.992;8.422;2022-09-17T06:49:07;12.70;11.50
5459;DHT22;2752;49.992;8.422;2022-09-17T06:51:34;12.90;17.10
5459;DHT22;2752;49.992;8.422;2022-09-17T06:54:09;13.00;6.90
5459;DHT22;2752;49.992;8.422;2022-09-17T06:56:37;12.90;1.00
5459;DHT22;2752;49.992;8.422;2022-09-17T06:59:08;12.80;1.00
5459;DHT22;2752;49.992;8.422;2022-09-17T07:01:37;12.70;9.00
5459;DHT22;2752;49.992;8.422;2022-09-17T07:04:07;12.80;1.00
5459;DHT22;2752;49.992;8.422;2022-09-17T07:06:35;12.80;1.00
5459;DHT22;2752;49.992;8.422;2022-09-17T07:09:02;13.10;10.90
5459;DHT22;2752;49.992;8.422;2022-09-17T07:11:29;12.60;10.70
5459;DHT22;2752;49.992;8.422;2022-09-17T07:13:57;12.70;1.00
5459;DHT22;2752;49.992;8.422;2022-09-17T07:16:25;12.70;1.00
5459;DHT22;2752;49.992;8.422;2022-09-17T07:18:52;12.60;1.00
5459;DHT22;2752;49.992;8.422;2022-09-17T07:21:21;12.70;5.40
5459;DHT22;2752;49.992;8.422;2022-09-17T07:23:51;12.70;1.00
5459;DHT22;2752;49.992;8.422;2022-09-17T07:26:18;12.60;1.00
5459;DHT22;2752;49.992;8.422;2022-09-17T07:28:47;12.50;1.00
5459;DHT22;2752;49.992;8.422;2022-09-17T07:31:14;12.70;1.00
5459;DHT22;2752;49.992;8.422;2022-09-17T07:33:43;13.00;9.80
5459;DHT22;2752;49.992;8.422;2022-09-17T07:38:44;13.40;1.00
5459;DHT22;2752;49.992;8.422;2022-09-17T07:41:14;13.80;1.00
5459;DHT22;2752;49.992;8.422;2022-09-17T07:43:46;14.00;1.00
5459;DHT22;2752;49.992;8.422;2022-09-17T07:46:16;14.10;1.00
5459;DHT22;2752;49.992;8.422;2022-09-17T07:48:43;14.30;1.00
5459;DHT22;2752;49.992;8.422;2022-09-17T07:51:14;14.20;1.00
5459;DHT22;2752;49.992;8.422;2022-09-17T07:53:43;14.20;1.00
5459;DHT22;2752;49.992;8.422;2022-09-17T07:56:10;14.30;1.00
5459;DHT22;2752;49.992;8.422;2022-09-17T08:01:06;14.30;1.00
5459;DHT22;2752;49.992;8.422;2022-09-17T08:03:34;13.80;1.00
5459;DHT22;2752;49.992;8.422;2022-09-17T08:06:07;13.90;1.00
5459;DHT22;2752;49.992;8.422;2022-09-17T08:08:35;13.90;1.00
5459;DHT22;2752;49.992;8.422;2022-09-17T08:11:06;13.90;1.00
5459;DHT22;2752;49.992;8.422;2022-09-17T08:13:34;13.80;1.00
5459;DHT22;2752;49.992;8.422;2022-09-17T08:16:04;13.80;1.00
5459;DHT22;2752;49.992;8.422;2022-09-17T08:18:33;13.80;1.00
5459;DHT22;2752;49.992;8.422;2022-09-17T08:21:02;13.80;1.00
5459;DHT22;2752;49.992;8.422;2022-09-17T08:23:34;13.80;1.00
5459;DHT22;2752;49.992;8.422;2022-09-17T08:26:10;13.80;1.00
5459;DHT22;2752;49.992;8.422;2022-09-17T08:28:38;13.70;1.00
5459;DHT22;2752;49.992;8.422;2022-09-17T08:31:06;13.80;1.00
5459;DHT22;2752;49.992;8.422;2022-09-17T08:33:35;13.90;1.00
5459;DHT22;2752;49.992;8.422;2022-09-17T08:36:04;14.00;1.00
5459;DHT22;2752;49.992;8.422;2022-09-17T08:38:34;14.00;1.00
5459;DHT22;2752;49.992;8.422;2022-09-17T08:41:13;14.10;1.00
5459;DHT22;2752;49.992;8.422;2022-09-17T08:43:47;14.30;1.00
5459;DHT22;2752;49.992;8.422;2022-09-17T08:46:17;13.40;1.00
5459;DHT22;2752;49.992;8.422;2022-09-17T08:48:59;14.50;1.00
5459;DHT22;2752;49.992;8.422;2022-09-17T08:51:35;14.60;1.00
5459;DHT22;2752;49.992;8.422;2022-09-17T08:54:07;14.90;1.00
5459;DHT22;2752;49.992;8.422;2022-09-17T08:56:42;15.00;1.00
5459;DHT22;2752;49.992;8.422;2022-09-17T08:59:21;15.00;1.00
5459;DHT22;2752;49.992;8.422;2022-09-17T09:01:58;15.10;1.00
5459;DHT22;2752;49.992;8.422;2022-09-17T09:04:56;15.20;1.00
5459;DHT22;2752;49.992;8.422;2022-09-17T09:07:28;15.30;1.00
5459;DHT22;2752;49.992;8.422;2022-09-17T09:10:05;15.40;1.00
5459;DHT22;2752;49.992;8.422;2022-09-17T09:12:38;15.40;1.00
5459;DHT22;2752;49.992;8.422;2022-09-17T09:15:27;15.10;1.00
5459;DHT22;2752;49.992;8.422;2022-09-17T09:18:04;15.30;1.00
5459;DHT22;2752;49.992;8.422;2022-09-17T09:20:42;15.80;1.00
5459;DHT22;2752;49.992;8.422;2022-09-17T09:23:19;15.90;1.00
5459;DHT22;2752;49.992;8.422;2022-09-17T09:25:53;16.30;1.00
5459;DHT22;2752;49.992;8.422;2022-09-17T09:28:38;16.10;1.00
5459;DHT22;2752;49.992;8.422;2022-09-17T09:31:24;16.00;1.00
5459;DHT22;2752;49.992;8.422;2022-09-17T09:33:54;15.90;1.00
5459;DHT22;2752;49.992;8.422;2022-09-17T09:36:24;15.90;1.00
5459;DHT22;2752;49.992;8.422;2022-09-17T09:38:56;16.00;1.00
5459;DHT22;2752;49.992;8.422;2022-09-17T09:41:28;15.80;1.00
5459;DHT22;2752;49.992;8.422;2022-09-17T09:44:00;15.60;1.00
5459;DHT22;2752;49.992;8.422;2022-09-17T09:46:39;15.40;1.00
5459;DHT22;2752;49.992;8.422;2022-09-17T09:49:18;15.10;1.00
5459;DHT22;2752;49.992;8.422;2022-09-17T09:51:59;14.40;1.00
5459;DHT22;2752;49.992;8.422;2022-09-17T09:54:40;13.10;1.00
5459;DHT22;2752;49.992;8.422;2022-09-17T09:57:12;12.80;1.00
5459;DHT22;2752;49.992;8.422;2022-09-17T09:59:41;12.30;1.00
5459;DHT22;2752;49.992;8.422;2022-09-17T10:02:08;12.10;1.00
5459;DHT22;2752;49.992;8.422;2022-09-17T10:04:35;12.10;1.00
5459;DHT22;2752;49.992;8.422;2022-09-17T10:07:04;12.10;1.00
5459;DHT22;2752;49.992;8.422;2022-09-17T10:09:33;12.20;1.00
5459;DHT22;2752;49.992;8.422;2022-09-17T10:12:03;12.60;1.00
5459;DHT22;2752;49.992;8.422;2022-09-17T10:14:32;12.40;1.00
5459;DHT22;2752;49.992;8.422;2022-09-17T10:17:17;12.60;1.00
5459;DHT22;2752;49.992;8.422;2022-09-17T10:19:46;12.70;1.00
5459;DHT22;2752;49.992;8.422;2022-09-17T10:22:34;12.70;1.00
5459;DHT22;2752;49.992;8.422;2022-09-17T10:25:02;12.90;1.00
5459;DHT22;2752;49.992;8.422;2022-09-17T10:27:30;12.90;1.00
5459;DHT22;2752;49.992;8.422;2022-09-17T10:30:03;13.10;1.00
5459;DHT22;2752;49.992;8.422;2022-09-17T10:32:40;13.10;1.00
5459;DHT22;2752;49.992;8.422;2022-09-17T10:35:24;13.20;1.00
5459;DHT22;2752;49.992;8.422;2022-09-17T10:37:52;13.30;1.00
5459;DHT22;2752;49.992;8.422;2022-09-17T10:40:25;13.20;1.00
5459;DHT22;2752;49.992;8.422;2022-09-17T10:43:20;13.20;1.00
5459;DHT22;2752;49.992;8.422;2022-09-17T10:45:56;13.20;1.00
5459;DHT22;2752;49.992;8.422;2022-09-17T10:48:27;13.20;1.00
5459;DHT22;2752;49.992;8.422;2022-09-17T10:50:56;13.30;1.00
5459;DHT22;2752;49.992;8.422;2022-09-17T10:53:24;13.50;1.00
5459;DHT22;2752;49.992;8.422;2022-09-17T10:55:56;13.60;1.00
5459;DHT22;2752;49.992;8.422;2022-09-17T10:58:33;13.70;1.00
5459;DHT22;2752;49.992;8.422;2022-09-17T11:01:13;13.80;1.00
5459;DHT22;2752;49.992;8.422;2022-09-17T11:04:06;13.90;1.00
5459;DHT22;2752;49.992;8.422;2022-09-17T11:09:44;14.40;1.00
5459;DHT22;2752;49.992;8.422;2022-09-17T11:12:22;14.50;1.00
5459;DHT22;2752;49.992;8.422;2022-09-17T11:14:56;14.60;1.00
5459;DHT22;2752;49.992;8.422;2022-09-17T11:17:47;14.70;1.00
5459;DHT22;2752;49.992;8.422;2022-09-17T11:20:31;15.10;1.00
5459;DHT22;2752;49.992;8.422;2022-09-17T11:23:14;15.10;1.00
5459;DHT22;2752;49.992;8.422;2022-09-17T11:25:50;15.30;1.00
5459;DHT22;2752;49.992;8.422;2022-09-17T11:28:32;15.30;1.00
5459;DHT22;2752;49.992;8.422;2022-09-17T11:31:10;15.30;1.00
5459;DHT22;2752;49.992;8.422;2022-09-17T11:34:03;15.50;1.00
5459;DHT22;2752;49.992;8.422;2022-09-17T11:36:41;15.40;1.00
5459;DHT22;2752;49.992;8.422;2022-09-17T11:39:15;15.40;1.00
5459;DHT22;2752;49.992;8.422;2022-09-17T11:41:45;15.60;1.00
5459;DHT22;2752;49.992;8.422;2022-09-17T11:44:19;15.70;1.00
5459;DHT22;2752;49.992;8.422;2022-09-17T11:46:51;15.70;1.00
5459;DHT22;2752;49.992;8.422;2022-09-17T11:49:23;15.90;1.00
5459;DHT22;2752;49.992;8.422;2022-09-17T11:51:57;16.20;1.00
5459;DHT22;2752;49.992;8.422;2022-09-17T11:54:27;16.40;1.00
5459;DHT22;2752;49.992;8.422;2022-09-17T11:57:00;16.70;1.00
5459;DHT22;2752;49.992;8.422;2022-09-17T11:59:34;16.80;1.00
5459;DHT22;2752;49.992;8.422;2022-09-17T12:02:13;16.60;1.00
5459;DHT22;2752;49.992;8.422;2022-09-17T12:04:44;17.40;1.00
5459;DHT22;2752;49.992;8.422;2022-09-17T12:07:26;17.80;1.00
5459;DHT22;2752;49.992;8.422;2022-09-17T12:09:59;17.80;1.00
5459;DHT22;2752;49.992;8.422;2022-09-17T12:12:29;17.50;1.00
5459;DHT22;2752;49.992;8.422;2022-09-17T12:15:01;17.60;1.00
5459;DHT22;2752;49.992;8.422;2022-09-17T12:17:35;17.70;1.00
5459;DHT22;2752;49.992;8.422;2022-09-17T12:20:06;17.70;1.00
5459;DHT22;2752;49.992;8.422;2022-09-17T12:22:37;17.80;1.00
5459;DHT22;2752;49.992;8.422;2022-09-17T12:25:11;17.80;1.00
5459;DHT22;2752;49.992;8.422;2022-09-17T12:27:42;18.10;1.00
5459;DHT22;2752;49.992;8.422;2022-09-17T12:30:12;17.90;1.00
5459;DHT22;2752;49.992;8.422;2022-09-17T12:35:45;17.60;1.00
5459;DHT22;2752;49.992;8.422;2022-09-17T12:38:31;17.40;1.00
5459;DHT22;2752;49.992;8.422;2022-09-17T12:41:09;16.90;1.00
5459;DHT22;2752;49.992;8.422;2022-09-17T12:43:50;16.60;1.00
5459;DHT22;2752;49.992;8.422;2022-09-17T12:46:33;16.30;1.00
5459;DHT22;2752;49.992;8.422;2022-09-17T12:49:29;16.30;1.00
5459;DHT22;2752;49.992;8.422;2022-09-17T12:52:00;16.10;1.00
5459;DHT22;2752;49.992;8.422;2022-09-17T12:54:51;16.20;1.00
5459;DHT22;2752;49.992;8.422;2022-09-17T12:57:31;16.50;1.00
5459;DHT22;2752;49.992;8.422;2022-09-17T13:00:04;16.80;1.00
5459;DHT22;2752;49.992;8.422;2022-09-17T13:02:37;16.80;1.00
5459;DHT22;2752;49.992;8.422;2022-09-17T13:05:24;16.70;1.00
5459;DHT22;2752;49.992;8.422;2022-09-17T13:08:06;16.50;1.00
5459;DHT22;2752;49.992;8.422;2022-09-17T13:13:39;16.50;1.00
5459;DHT22;2752;49.992;8.422;2022-09-17T13:16:12;16.60;1.00
5459;DHT22;2752;49.992;8.422;2022-09-17T13:18:45;16.60;1.00
5459;DHT22;2752;49.992;8.422;2022-09-17T13:21:16;16.50;1.00
5459;DHT22;2752;49.992;8.422;2022-09-17T13:23:47;16.30;1.00
5459;DHT22;2752;49.992;8.422;2022-09-17T13:26:19;16.20;1.00
5459;DHT22;2752;49.992;8.422;2022-09-17T13:28:48;16.00;1.00
5459;DHT22;2752;49.992;8.422;2022-09-17T13:31:19;16.00;1.00
5459;DHT22;2752;49.992;8.422;2022-09-17T13:33:51;15.50;1.00
5459;DHT22;2752;49.992;8.422;2022-09-17T13:36:42;15.60;1.00
5459;DHT22;2752;49.992;8.422;2022-09-17T13:39:40;15.80;1.00
5459;DHT22;2752;49.992;8.422;2022-09-17T13:42:17;15.70;1.00
5459;DHT22;2752;49.992;8.422;2022-09-17T13:44:47;15.80;1.00
5459;DHT22;2752;49.992;8.422;2022-09-17T13:47:22;16.00;1.00
5459;DHT22;2752;49.992;8.422;2022-09-17T13:49:52;16.00;1.00
5459;DHT22;2752;49.992;8.422;2022-09-17T13:52:38;16.00;1.00
5459;DHT22;2752;49.992;8.422;2022-09-17T13:55:07;16.30;1.00
5459;DHT22;2752;49.992;8.422;2022-09-17T13:57:47;16.30;1.00
5459;DHT22;2752;49.992;8.422;2022-09-17T14:00:51;16.40;1.00
5459;DHT22;2752;49.992;8.422;2022-09-17T14:03:50;16.50;1.00
5459;DHT22;2752;49.992;8.422;2022-09-17T14:06:47;16.60;1.00
5459;DHT22;2752;49.992;8.422;2022-09-17T14:09:31;16.80;1.00
5459;DHT22;2752;49.992;8.422;2022-09-17T14:11:58;16.80;1.00
5459;DHT22;2752;49.992;8.422;2022-09-17T14:14:49;16.90;1.00
5459;DHT22;2752;49.992;8.422;2022-09-17T14:17:47;17.10;1.00
5459;DHT22;2752;49.992;8.422;2022-09-17T14:20:15;17.20;1.00
5459;DHT22;2752;49.992;8.422;2022-09-17T14:22:43;17.40;1.00
5459;DHT22;2752;49.992;8.422;2022-09-17T14:25:14;17.30;1.00
5459;DHT22;2752;49.992;8.422;2022-09-17T14:27:48;17.20;1.00
5459;DHT22;2752;49.992;8.422;2022-09-17T14:30:21;17.10;1.00
5459;DHT22;2752;49.992;8.422;2022-09-17T14:32:56;17.10;1.00
5459;DHT22;2752;49.992;8.422;2022-09-17T14:35:28;17.20;1.00
5459;DHT22;2752;49.992;8.422;2022-09-17T14:37:58;17.10;1.00
5459;DHT22;2752;49.992;8.422;2022-09-17T14:40:26;16.90;1.00
5459;DHT22;2752;49.992;8.422;2022-09-17T14:42:55;17.20;1.00
5459;DHT22;2752;49.992;8.422;2022-09-17T14:45:30;17.20;1.00
5459;DHT22;2752;49.992;8.422;2022-09-17T14:48:25;17.10;1.00
5459;DHT22;2752;49.992;8.422;2022-09-17T14:50:52;17.10;1.00
5459;DHT22;2752;49.992;8.422;2022-09-17T14:53:19;17.20;1.00
5459;DHT22;2752;49.992;8.422;2022-09-17T14:55:48;17.20;1.00
5459;DHT22;2752;49.992;8.422;2022-09-17T14:58:29;17.00;1.00
5459;DHT22;2752;49.992;8.422;2022-09-17T15:00:58;17.00;1.00
5459;DHT22;2752;49.992;8.422;2022-09-17T15:03:25;16.80;1.00
5459;DHT22;2752;49.992;8.422;2022-09-17T15:05:52;16.60;1.00
5459;DHT22;2752;49.992;8.422;2022-09-17T15:08:20;16.60;1.00
5459;DHT22;2752;49.992;8.422;2022-09-17T15:10:50;16.50;1.00
5459;DHT22;2752;49.992;8.422;2022-09-17T15:13:19;16.50;1.00
5459;DHT22;2752;49.992;8.422;2022-09-17T15:16:02;16.50;1.00
5459;DHT22;2752;49.992;8.422;2022-09-17T15:18:37;16.30;1.00
5459;DHT22;2752;49.992;8.422;2022-09-17T15:21:16;16.30;1.00
5459;DHT22;2752;49.992;8.422;2022-09-17T15:23:45;16.00;1.00
5459;DHT22;2752;49.992;8.422;2022-09-17T15:26:14;16.00;1.00
5459;DHT22;2752;49.992;8.422;2022-09-17T15:28:44;15.90;1.00
5459;DHT22;2752;49.992;8.422;2022-09-17T15:31:16;15.80;1.00
5459;DHT22;2752;49.992;8.422;2022-09-17T15:33:43;15.80;1.00
5459;DHT22;2752;49.992;8.422;2022-09-17T15:36:18;15.80;1.00
5459;DHT22;2752;49.992;8.422;2022-09-17T15:38:45;15.80;1.00
5459;DHT22;2752;49.992;8.422;2022-09-17T15:41:28;15.70;1.00
5459;DHT22;2752;49.992;8.422;2022-09-17T15:44:06;15.60;1.00
5459;DHT22;2752;49.992;8.422;2022-09-17T15:46:34;15.50;1.00
5459;DHT22;2752;49.992;8.422;2022-09-17T15:49:02;15.30;1.00
5459;DHT22;2752;49.992;8.422;2022-09-17T15:51:31;15.40;1.00
5459;DHT22;2752;49.992;8.422;2022-09-17T15:53:59;15.40;1.00
5459;DHT22;2752;49.992;8.422;2022-09-17T15:56:27;14.80;1.00
5459;DHT22;2752;49.992;8.422;2022-09-17T15:58:59;15.20;1.00
5459;DHT22;2752;49.992;8.422;2022-09-17T16:01:52;15.00;1.00
5459;DHT22;2752;49.992;8.422;2022-09-17T16:04:22;14.90;1.00
5459;DHT22;2752;49.992;8.422;2022-09-17T16:06:57;14.90;1.00
5459;DHT22;2752;49.992;8.422;2022-09-17T16:09:45;14.80;1.00
5459;DHT22;2752;49.992;8.422;2022-09-17T16:12:15;14.80;1.00
5459;DHT22;2752;49.992;8.422;2022-09-17T16:14:47;14.70;1.00
5459;DHT22;2752;49.992;8.422;2022-09-17T16:17:30;14.40;1.00
5459;DHT22;2752;49.992;8.422;2022-09-17T16:20:05;13.60;1.00
5459;DHT22;2752;49.992;8.422;2022-09-17T16:22:33;13.60;1.00
5459;DHT22;2752;49.992;8.422;2022-09-17T16:24:59;13.50;1.00
5459;DHT22;2752;49.992;8.422;2022-09-17T16:27:29;13.50;1.00
5459;DHT22;2752;49.992;8.422;2022-09-17T16:30:01;13.50;1.00
5459;DHT22;2752;49.992;8.422;2022-09-17T16:34:57;13.50;1.00
5459;DHT22;2752;49.992;8.422;2022-09-17T16:37:23;13.50;1.00
5459;DHT22;2752;49.992;8.422;2022-09-17T16:39:50;13.50;1.00
5459;DHT22;2752;49.992;8.422;2022-09-17T16:42:18;13.40;1.00
5459;DHT22;2752;49.992;8.422;2022-09-17T16:44:44;13.50;1.00
5459;DHT22;2752;49.992;8.422;2022-09-17T16:47:11;13.50;1.00
5459;DHT22;2752;49.992;8.422;2022-09-17T16:49:39;13.50;1.00
5459;DHT22;2752;49.992;8.422;2022-09-17T16:52:05;13.50;1.00
5459;DHT22;2752;49.992;8.422;2022-09-17T16:54:32;13.50;1.00
5459;DHT22;2752;49.992;8.422;2022-09-17T16:56:59;13.50;1.00
5459;DHT22;2752;49.992;8.422;2022-09-17T16:59:25;13.50;1.00
5459;DHT22;2752;49.992;8.422;2022-09-17T17:01:52;13.50;1.00
5459;DHT22;2752;49.992;8.422;2022-09-17T17:04:19;13.60;1.00
5459;DHT22;2752;49.992;8.422;2022-09-17T17:06:47;13.60;1.00
5459;DHT22;2752;49.992;8.422;2022-09-17T17:09:13;13.50;1.00
5459;DHT22;2752;49.992;8.422;2022-09-17T17:11:40;13.60;1.00
5459;DHT22;2752;49.992;8.422;2022-09-17T17:14:07;13.70;1.00
5459;DHT22;2752;49.992;8.422;2022-09-17T17:16:33;13.60;1.00
5459;DHT22;2752;49.992;8.422;2022-09-17T17:21:27;13.30;1.00
5459;DHT22;2752;49.992;8.422;2022-09-17T17:23:55;13.30;1.00
5459;DHT22;2752;49.992;8.422;2022-09-17T17:26:22;13.20;1.00
5459;DHT22;2752;49.992;8.422;2022-09-17T17:28:48;13.10;1.00
5459;DHT22;2752;49.992;8.422;2022-09-17T17:31:15;13.00;1.00
5459;DHT22;2752;49.992;8.422;2022-09-17T17:33:42;12.70;1.00
5459;DHT22;2752;49.992;8.422;2022-09-17T17:36:09;12.50;1.00
5459;DHT22;2752;49.992;8.422;2022-09-17T17:38:36;12.10;3.90
5459;DHT22;2752;49.992;8.422;2022-09-17T17:41:07;11.80;9.80
5459;DHT22;2752;49.992;8.422;2022-09-17T17:43:35;11.80;14.60
5459;DHT22;2752;49.992;8.422;2022-09-17T17:46:04;11.80;20.50
5459;DHT22;2752;49.992;8.422;2022-09-17T17:48:32;11.80;27.80
5459;DHT22;2752;49.992;8.422;2022-09-17T17:51:01;11.60;24.90
5459;DHT22;2752;49.992;8.422;2022-09-17T17:53:28;11.40;23.90
5459;DHT22;2752;49.992;8.422;2022-09-17T17:55:57;11.50;21.90
5459;DHT22;2752;49.992;8.422;2022-09-17T17:58:26;11.50;25.10
5459;DHT22;2752;49.992;8.422;2022-09-17T18:00:53;11.40;21.20
5459;DHT22;2752;49.992;8.422;2022-09-17T18:03:20;11.70;28.70
5459;DHT22;2752;49.992;8.422;2022-09-17T18:05:50;11.30;29.20
5459;DHT22;2752;49.992;8.422;2022-09-17T18:08:16;11.30;32.40
5459;DHT22;2752;49.992;8.422;2022-09-17T18:10:50;11.20;35.60
5459;DHT22;2752;49.992;8.422;2022-09-17T18:13:16;11.20;41.40
5459;DHT22;2752;49.992;8.422;2022-09-17T18:15:51;11.30;45.00
5459;DHT22;2752;49.992;8.422;2022-09-17T18:18:18;11.40;44.60
5459;DHT22;2752;49.992;8.422;2022-09-17T18:20:45;11.40;40.80
5459;DHT22;2752;49.992;8.422;2022-09-17T18:23:11;11.80;38.70
5459;DHT22;2752;49.992;8.422;2022-09-17T18:25:38;11.40;36.40
5459;DHT22;2752;49.992;8.422;2022-09-17T18:28:05;11.40;40.10
5459;DHT22;2752;49.992;8.422;2022-09-17T18:30:34;11.30;41.00
5459;DHT22;2752;49.992;8.422;2022-09-17T18:33:02;11.30;41.70
5459;DHT22;2752;49.992;8.422;2022-09-17T18:35:33;11.70;36.90